sensor_id;sensor_type;location;lat;lon;timestamp;temperature;humidity
2387;DHT22;49473;50.772;8.768;2023-05-07T00:02:18;13.60;99.90
2387;DHT22;49473;50.772;8.768;2023-05-07T00:04:45;13.70;99.90
2387;DHT22;49473;50.772;8.768;2023-05-07T00:07:11;13.70;99.90
2387;DHT22;49473;50.772;8.768;2023-05-07T00:09:38;13.70;99.90
2387;DHT22;49473;50.772;8.768;2023-05-07T00:12:05;13.80;99.90
2387;DHT22;49473;50.772;8.768;2023-05-07T00:14:32;13.70;99.90
2387;DHT22;49473;50.772;8.768;2023-05-07T00:17:00;13.70;99.90
2387;DHT22;49473;50.772;8.768;2023-05-07T00:19:27;13.60;99.90
2387;DHT22;49473;50.772;8.768;2023-05-07T00:21:54;13.60;99.90
2387;DHT22;49473;50.772;8.768;2023-05-07T00:24:21;13.60;99.90
2387;DHT22;49473;50.772;8.768;2023-05-07T00:26:48;13.70;99.90
2387;DHT22;49473;50.772;8.768;2023-05-07T00:29:14;13.70;99.90
2387;DHT22;49473;50.772;8.768;2023-05-07T00:31:41;13.70;99.90
2387;DHT22;49473;50.772;8.768;2023-05-07T00:34:09;13.70;99.90
2387;DHT22;49473;50.772;8.768;2023-05-07T00:36:37;13.70;99.90
2387;DHT22;49473;50.772;8.768;2023-05-07T00:39:03;13.70;99.90
2387;DHT22;49473;50.772;8.768;2023-05-07T00:41:30;13.80;99.90
2387;DHT22;49473;50.772;8.768;2023-05-07T00:43:57;13.80;99.90
2387;DHT22;49473;50.772;8.768;2023-05-07T00:46:24;13.80;99.90
2387;DHT22;49473;50.772;8.768;2023-05-07T00:48:51;13.80;99.90
2387;DHT22;49473;50.772;8.768;2023-05-07T00:51:20;13.80;99.90
2387;DHT22;49473;50.772;8.768;2023-05-07T00:53:47;13.80;99.90
2387;DHT22;49473;50.772;8.768;2023-05-07T00:56:14;13.90;99.90
2387;DHT22;49473;50.772;8.768;2023-05-07T00:58:41;13.80;99.90
2387;DHT22;49473;50.772;8.768;2023-05-07T01:01:07;13.80;99.90
2387;DHT22;49473;50.772;8.768;2023-05-07T01:03:34;13.90;99.90
2387;DHT22;49473;50.772;8.768;2023-05-07T01:06:02;13.90;99.90
2387;DHT22;49473;50.772;8.768;2023-05-07T01:08:31;13.90;99.90
2387;DHT22;49473;50.772;8.768;2023-05-07T01:11:00;13.90;99.90
2387;DHT22;49473;50.772;8.768;2023-05-07T01:13:27;13.80;99.90
2387;DHT22;49473;50.772;8.768;2023-05-07T01:15:54;13.80;99.90
2387;DHT22;49473;50.772;8.768;2023-05-07T01:18:21;13.90;99.90
2387;DHT22;49473;50.772;8.768;2023-05-07T01:20:48;13.90;99.90
2387;DHT22;49473;50.772;8.768;2023-05-07T01:23:17;14.00;99.90
2387;DHT22;49473;50.772;8.768;2023-05-07T01:25:51;14.00;99.90
2387;DHT22;49473;50.772;8.768;2023-05-07T01:28:18;14.00;99.90
2387;DHT22;49473;50.772;8.768;2023-05-07T01:30:46;13.90;99.90
2387;DHT22;49473;50.772;8.768;2023-05-07T01:33:15;13.80;99.90
2387;DHT22;49473;50.772;8.768;2023-05-07T01:35:48;13.80;99.90
2387;DHT22;49473;50.772;8.768;2023-05-07T01:38:19;13.80;99.90
2387;DHT22;49473;50.772;8.768;2023-05-07T01:40:47;13.80;99.90
2387;DHT22;49473;50.772;8.768;2023-05-07T01:43:14;13.80;99.90
2387;DHT22;49473;50.772;8.768;2023-05-07T01:45:41;13.80;99.90
2387;DHT22;49473;50.772;8.768;2023-05-07T01:48:11;13.80;99.90
2387;DHT22;49473;50.772;8.768;2023-05-07T01:50:39;13.70;99.90
2387;DHT22;49473;50.772;8.768;2023-05-07T01:53:06;13.60;99.90
2387;DHT22;49473;50.772;8.768;2023-05-07T01:55:35;13.50;99.90
2387;DHT22;49473;50.772;8.768;2023-05-07T01:58:02;13.50;99.90
2387;DHT22;49473;50.772;8.768;2023-05-07T02:00:29;13.30;99.90
2387;DHT22;49473;50.772;8.768;2023-05-07T02:02:56;13.20;99.90
2387;DHT22;49473;50.772;8.768;2023-05-07T02:05:23;13.20;99.90
2387;DHT22;49473;50.772;8.768;2023-05-07T02:07:50;13.20;99.90
2387;DHT22;49473;50.772;8.768;2023-05-07T02:10:16;13.20;99.90
2387;DHT22;49473;50.772;8.768;2023-05-07T02:12:44;13.10;99.90
2387;DHT22;49473;50.772;8.768;2023-05-07T02:15:11;13.10;99.90
2387;DHT22;49473;50.772;8.768;2023-05-07T02:17:39;13.10;99.90
2387;DHT22;49473;50.772;8.768;2023-05-07T02:20:23;13.10;99.90
2387;DHT22;49473;50.772;8.768;2023-05-07T02:22:50;13.10;99.90
2387;DHT22;49473;50.772;8.768;2023-05-07T02:25:17;13.20;99.90
2387;DHT22;49473;50.772;8.768;2023-05-07T02:27:46;13.30;99.90
2387;DHT22;49473;50.772;8.768;2023-05-07T02:30:14;13.30;99.90
2387;DHT22;49473;50.772;8.768;2023-05-07T02:32:40;13.20;99.90
2387;DHT22;49473;50.772;8.768;2023-05-07T02:35:08;13.30;99.90
2387;DHT22;49473;50.772;8.768;2023-05-07T02:37:34;13.20;99.90
2387;DHT22;49473;50.772;8.768;2023-05-07T02:40:01;13.20;99.90
2387;DHT22;49473;50.772;8.768;2023-05-07T02:42:29;13.20;99.90
2387;DHT22;49473;50.772;8.768;2023-05-07T02:44:58;13.20;99.90
2387;DHT22;49473;50.772;8.768;2023-05-07T02:47:24;13.20;99.90
2387;DHT22;49473;50.772;8.768;2023-05-07T02:49:52;13.30;99.90
2387;DHT22;49473;50.772;8.768;2023-05-07T02:52:19;13.30;99.90
2387;DHT22;49473;50.772;8.768;2023-05-07T02:54:46;13.40;99.90
2387;DHT22;49473;50.772;8.768;2023-05-07T02:57:12;13.40;99.90
2387;DHT22;49473;50.772;8.768;2023-05-07T02:59:39;13.50;99.90
2387;DHT22;49473;50.772;8.768;2023-05-07T03:02:07;13.60;99.90
2387;DHT22;49473;50.772;8.768;2023-05-07T03:04:34;13.60;99.90
2387;DHT22;49473;50.772;8.768;2023-05-07T03:07:01;13.60;99.90
2387;DHT22;49473;50.772;8.768;2023-05-07T03:09:27;13.50;99.90
2387;DHT22;49473;50.772;8.768;2023-05-07T03:11:54;13.40;99.90
2387;DHT22;49473;50.772;8.768;2023-05-07T03:14:21;13.40;99.90
2387;DHT22;49473;50.772;8.768;2023-05-07T03:16:49;13.30;99.90
2387;DHT22;49473;50.772;8.768;2023-05-07T03:19:17;13.20;99.90
2387;DHT22;49473;50.772;8.768;2023-05-07T03:21:44;13.10;99.90
2387;DHT22;49473;50.772;8.768;2023-05-07T03:24:11;13.20;99.90
2387;DHT22;49473;50.772;8.768;2023-05-07T03:26:38;13.20;99.90
2387;DHT22;49473;50.772;8.768;2023-05-07T03:29:05;13.30;99.90
2387;DHT22;49473;50.772;8.768;2023-05-07T03:31:31;13.30;99.90
2387;DHT22;49473;50.772;8.768;2023-05-07T03:33:58;13.30;99.90
2387;DHT22;49473;50.772;8.768;2023-05-07T03:36:27;13.30;99.90
2387;DHT22;49473;50.772;8.768;2023-05-07T03:38:54;13.30;99.90
2387;DHT22;49473;50.772;8.768;2023-05-07T03:41:20;13.30;99.90
2387;DHT22;49473;50.772;8.768;2023-05-07T03:43:47;13.30;99.90
2387;DHT22;49473;50.772;8.768;2023-05-07T03:46:14;13.30;99.90
2387;DHT22;49473;50.772;8.768;2023-05-07T03:48:41;13.30;99.90
2387;DHT22;49473;50.772;8.768;2023-05-07T03:51:07;13.40;99.90
2387;DHT22;49473;50.772;8.768;2023-05-07T03:53:36;13.40;99.90
2387;DHT22;49473;50.772;8.768;2023-05-07T03:56:03;13.30;99.90
2387;DHT22;49473;50.772;8.768;2023-05-07T03:58:30;13.20;99.90
2387;DHT22;49473;50.772;8.768;2023-05-07T04:00:56;13.10;99.90
2387;DHT22;49473;50.772;8.768;2023-05-07T04:03:23;13.00;99.90
2387;DHT22;49473;50.772;8.768;2023-05-07T04:05:50;12.90;99.90
2387;DHT22;49473;50.772;8.768;2023-05-07T04:08:17;12.90;99.90
2387;DHT22;49473;50.772;8.768;2023-05-07T04:10:45;12.90;99.90
2387;DHT22;49473;50.772;8.768;2023-05-07T04:13:12;12.80;99.90
2387;DHT22;49473;50.772;8.768;2023-05-07T04:15:38;12.80;99.90
2387;DHT22;49473;50.772;8.768;2023-05-07T04:18:05;12.80;99.90
2387;DHT22;49473;50.772;8.768;2023-05-07T04:20:34;12.70;99.90
2387;DHT22;49473;50.772;8.768;2023-05-07T04:23:01;12.70;99.90
2387;DHT22;49473;50.772;8.768;2023-05-07T04:25:28;12.70;99.90
2387;DHT22;49473;50.772;8.768;2023-05-07T04:27:57;12.80;99.90
2387;DHT22;49473;50.772;8.768;2023-05-07T04:30:24;12.80;99.90
2387;DHT22;49473;50.772;8.768;2023-05-07T04:32:51;12.80;99.90
2387;DHT22;49473;50.772;8.768;2023-05-07T04:35:18;12.80;99.90
2387;DHT22;49473;50.772;8.768;2023-05-07T04:37:45;12.80;99.90
2387;DHT22;49473;50.772;8.768;2023-05-07T04:40:12;12.80;99.90
2387;DHT22;49473;50.772;8.768;2023-05-07T04:42:39;12.80;99.90
2387;DHT22;49473;50.772;8.768;2023-05-07T04:45:08;12.90;99.90
2387;DHT22;49473;50.772;8.768;2023-05-07T04:47:35;12.90;99.90
2387;DHT22;49473;50.772;8.768;2023-05-07T04:50:02;13.00;99.90
2387;DHT22;49473;50.772;8.768;2023-05-07T04:52:29;13.00;99.90
2387;DHT22;49473;50.772;8.768;2023-05-07T04:54:58;13.10;99.90
2387;DHT22;49473;50.772;8.768;2023-05-07T04:57:25;13.00;99.90
2387;DHT22;49473;50.772;8.768;2023-05-07T04:59:52;13.10;99.90
2387;DHT22;49473;50.772;8.768;2023-05-07T05:02:20;13.20;99.90
2387;DHT22;49473;50.772;8.768;2023-05-07T05:04:47;13.10;99.90
2387;DHT22;49473;50.772;8.768;2023-05-07T05:07:14;13.10;99.90
2387;DHT22;49473;50.772;8.768;2023-05-07T05:09:40;13.20;99.90
2387;DHT22;49473;50.772;8.768;2023-05-07T05:12:07;13.20;99.90
2387;DHT22;49473;50.772;8.768;2023-05-07T05:14:34;13.20;99.90
2387;DHT22;49473;50.772;8.768;2023-05-07T05:17:01;13.20;99.90
2387;DHT22;49473;50.772;8.768;2023-05-07T05:19:29;13.20;99.90
2387;DHT22;49473;50.772;8.768;2023-05-07T05:21:56;13.30;99.90
2387;DHT22;49473;50.772;8.768;2023-05-07T05:24:22;13.40;99.90
2387;DHT22;49473;50.772;8.768;2023-05-07T05:26:49;13.40;99.90
2387;DHT22;49473;50.772;8.768;2023-05-07T05:29:16;13.50;99.90
2387;DHT22;49473;50.772;8.768;2023-05-07T05:31:43;13.50;99.90
2387;DHT22;49473;50.772;8.768;2023-05-07T05:34:09;13.50;99.90
2387;DHT22;49473;50.772;8.768;2023-05-07T05:36:37;13.60;99.90
2387;DHT22;49473;50.772;8.768;2023-05-07T05:39:04;13.60;99.90
2387;DHT22;49473;50.772;8.768;2023-05-07T05:41:31;13.60;99.90
2387;DHT22;49473;50.772;8.768;2023-05-07T05:43:58;13.60;99.90
2387;DHT22;49473;50.772;8.768;2023-05-07T05:46:24;13.60;99.90
2387;DHT22;49473;50.772;8.768;2023-05-07T05:48:51;13.80;99.90
2387;DHT22;49473;50.772;8.768;2023-05-07T05:51:18;13.80;99.90
2387;DHT22;49473;50.772;8.768;2023-05-07T05:53:46;13.80;99.90
2387;DHT22;49473;50.772;8.768;2023-05-07T05:56:13;13.80;99.90
2387;DHT22;49473;50.772;8.768;2023-05-07T05:58:39;13.90;99.90
2387;DHT22;49473;50.772;8.768;2023-05-07T06:01:06;14.00;99.90
2387;DHT22;49473;50.772;8.768;2023-05-07T06:03:33;13.90;99.90
2387;DHT22;49473;50.772;8.768;2023-05-07T06:06:00;13.90;99.90
2387;DHT22;49473;50.772;8.768;2023-05-07T06:08:29;13.90;99.90
2387;DHT22;49473;50.772;8.768;2023-05-07T06:10:58;13.80;99.90
2387;DHT22;49473;50.772;8.768;2023-05-07T06:13:25;13.70;99.90
2387;DHT22;49473;50.772;8.768;2023-05-07T06:15:51;13.90;99.90
2387;DHT22;49473;50.772;8.768;2023-05-07T06:18:18;13.90;99.90
2387;DHT22;49473;50.772;8.768;2023-05-07T06:20:45;14.00;99.90
2387;DHT22;49473;50.772;8.768;2023-05-07T06:23:14;14.10;99.90
2387;DHT22;49473;50.772;8.768;2023-05-07T06:25:48;14.30;99.90
2387;DHT22;49473;50.772;8.768;2023-05-07T06:28:17;14.30;99.90
2387;DHT22;49473;50.772;8.768;2023-05-07T06:30:44;14.50;99.90
2387;DHT22;49473;50.772;8.768;2023-05-07T06:33:12;14.80;99.90
2387;DHT22;49473;50.772;8.768;2023-05-07T06:35:39;15.00;99.90
2387;DHT22;49473;50.772;8.768;2023-05-07T06:38:05;15.10;99.90
2387;DHT22;49473;50.772;8.768;2023-05-07T06:40:32;15.10;99.90
2387;DHT22;49473;50.772;8.768;2023-05-07T06:42:59;15.00;99.90
2387;DHT22;49473;50.772;8.768;2023-05-07T06:45:27;14.90;99.90
2387;DHT22;49473;50.772;8.768;2023-05-07T06:47:54;15.30;99.90
2387;DHT22;49473;50.772;8.768;2023-05-07T06:50:20;15.80;99.90
2387;DHT22;49473;50.772;8.768;2023-05-07T06:52:47;16.30;99.90
2387;DHT22;49473;50.772;8.768;2023-05-07T06:55:14;16.80;99.90
2387;DHT22;49473;50.772;8.768;2023-05-07T06:57:41;16.40;99.90
2387;DHT22;49473;50.772;8.768;2023-05-07T07:00:09;15.80;99.90
2387;DHT22;49473;50.772;8.768;2023-05-07T07:02:37;15.80;99.90
2387;DHT22;49473;50.772;8.768;2023-05-07T07:05:05;15.80;99.90
2387;DHT22;49473;50.772;8.768;2023-05-07T07:07:32;15.80;99.90
2387;DHT22;49473;50.772;8.768;2023-05-07T07:09:59;16.00;99.90
2387;DHT22;49473;50.772;8.768;2023-05-07T07:12:26;16.10;99.90
2387;DHT22;49473;50.772;8.768;2023-05-07T07:14:54;16.00;99.90
2387;DHT22;49473;50.772;8.768;2023-05-07T07:17:21;16.20;99.90
2387;DHT22;49473;50.772;8.768;2023-05-07T07:19:49;16.30;99.90
2387;DHT22;49473;50.772;8.768;2023-05-07T07:22:16;16.40;99.90
2387;DHT22;49473;50.772;8.768;2023-05-07T07:24:43;16.30;99.90
2387;DHT22;49473;50.772;8.768;2023-05-07T07:27:10;16.20;99.90
2387;DHT22;49473;50.772;8.768;2023-05-07T07:29:37;16.50;99.90
2387;DHT22;49473;50.772;8.768;2023-05-07T07:32:04;16.60;99.90
2387;DHT22;49473;50.772;8.768;2023-05-07T07:34:31;16.50;99.90
2387;DHT22;49473;50.772;8.768;2023-05-07T07:36:59;16.60;99.90
2387;DHT22;49473;50.772;8.768;2023-05-07T07:39:30;16.80;99.90
2387;DHT22;49473;50.772;8.768;2023-05-07T07:41:57;17.00;99.90
2387;DHT22;49473;50.772;8.768;2023-05-07T07:44:24;17.30;99.90
2387;DHT22;49473;50.772;8.768;2023-05-07T07:46:51;17.20;99.90
2387;DHT22;49473;50.772;8.768;2023-05-07T07:49:18;16.80;99.90
2387;DHT22;49473;50.772;8.768;2023-05-07T07:51:45;16.90;99.90
2387;DHT22;49473;50.772;8.768;2023-05-07T07:54:13;17.10;99.90
2387;DHT22;49473;50.772;8.768;2023-05-07T07:56:40;17.20;99.90
2387;DHT22;49473;50.772;8.768;2023-05-07T07:59:06;17.30;99.90
2387;DHT22;49473;50.772;8.768;2023-05-07T08:01:33;17.40;99.90
2387;DHT22;49473;50.772;8.768;2023-05-07T08:04:00;17.80;99.90
2387;DHT22;49473;50.772;8.768;2023-05-07T08:06:28;18.60;99.90
2387;DHT22;49473;50.772;8.768;2023-05-07T08:08:55;19.00;99.90
2387;DHT22;49473;50.772;8.768;2023-05-07T08:11:23;19.50;99.90
2387;DHT22;49473;50.772;8.768;2023-05-07T08:13:50;19.70;99.90
2387;DHT22;49473;50.772;8.768;2023-05-07T08:16:17;20.70;99.90
2387;DHT22;49473;50.772;8.768;2023-05-07T08:18:44;21.20;99.90
2387;DHT22;49473;50.772;8.768;2023-05-07T08:21:11;20.50;99.90
2387;DHT22;49473;50.772;8.768;2023-05-07T08:23:38;20.60;99.90
2387;DHT22;49473;50.772;8.768;2023-05-07T08:26:04;20.80;99.90
2387;DHT22;49473;50.772;8.768;2023-05-07T08:28:32;21.00;99.90
2387;DHT22;49473;50.772;8.768;2023-05-07T08:30:59;20.70;99.90
2387;DHT22;49473;50.772;8.768;2023-05-07T08:33:26;20.10;99.90
2387;DHT22;49473;50.772;8.768;2023-05-07T08:35:53;20.20;99.90
2387;DHT22;49473;50.772;8.768;2023-05-07T08:38:20;20.90;99.90
2387;DHT22;49473;50.772;8.768;2023-05-07T08:40:46;21.50;99.90
2387;DHT22;49473;50.772;8.768;2023-05-07T08:43:14;21.00;99.90
2387;DHT22;49473;50.772;8.768;2023-05-07T08:45:43;20.90;99.90
2387;DHT22;49473;50.772;8.768;2023-05-07T08:48:15;21.10;99.90
2387;DHT22;49473;50.772;8.768;2023-05-07T08:50:42;20.70;99.90
2387;DHT22;49473;50.772;8.768;2023-05-07T08:53:09;21.80;99.90
2387;DHT22;49473;50.772;8.768;2023-05-07T08:55:35;22.50;99.90
2387;DHT22;49473;50.772;8.768;2023-05-07T08:58:03;22.10;99.90
2387;DHT22;49473;50.772;8.768;2023-05-07T09:00:30;20.90;99.90
2387;DHT22;49473;50.772;8.768;2023-05-07T09:02:58;20.60;99.90
2387;DHT22;49473;50.772;8.768;2023-05-07T09:05:25;19.90;99.90
2387;DHT22;49473;50.772;8.768;2023-05-07T09:07:51;19.70;99.90
2387;DHT22;49473;50.772;8.768;2023-05-07T09:10:18;20.20;99.90
2387;DHT22;49473;50.772;8.768;2023-05-07T09:12:46;20.50;99.90
2387;DHT22;49473;50.772;8.768;2023-05-07T09:15:13;21.00;99.90
2387;DHT22;49473;50.772;8.768;2023-05-07T09:17:40;21.10;99.90
2387;DHT22;49473;50.772;8.768;2023-05-07T09:20:09;21.30;99.90
2387;DHT22;49473;50.772;8.768;2023-05-07T09:22:36;22.70;99.90
2387;DHT22;49473;50.772;8.768;2023-05-07T09:25:04;23.30;99.90
2387;DHT22;49473;50.772;8.768;2023-05-07T09:27:31;23.00;99.90
2387;DHT22;49473;50.772;8.768;2023-05-07T09:29:58;22.80;99.90
2387;DHT22;49473;50.772;8.768;2023-05-07T09:32:25;22.30;99.90
2387;DHT22;49473;50.772;8.768;2023-05-07T09:34:52;21.60;99.90
2387;DHT22;49473;50.772;8.768;2023-05-07T09:37:21;21.70;99.90
2387;DHT22;49473;50.772;8.768;2023-05-07T09:39:49;20.80;99.90
2387;DHT22;49473;50.772;8.768;2023-05-07T09:42:23;20.70;99.90
2387;DHT22;49473;50.772;8.768;2023-05-07T09:44:50;20.70;99.90
2387;DHT22;49473;50.772;8.768;2023-05-07T09:47:19;20.90;99.90
2387;DHT22;49473;50.772;8.768;2023-05-07T09:49:48;20.40;99.90
2387;DHT22;49473;50.772;8.768;2023-05-07T09:52:16;19.60;99.90
2387;DHT22;49473;50.772;8.768;2023-05-07T09:54:45;19.10;99.90
2387;DHT22;49473;50.772;8.768;2023-05-07T09:57:13;19.10;99.90
2387;DHT22;49473;50.772;8.768;2023-05-07T09:59:42;19.30;99.90
2387;DHT22;49473;50.772;8.768;2023-05-07T10:02:10;19.70;99.90
2387;DHT22;49473;50.772;8.768;2023-05-07T10:04:37;19.40;99.90
2387;DHT22;49473;50.772;8.768;2023-05-07T10:07:04;19.40;99.90
2387;DHT22;49473;50.772;8.768;2023-05-07T10:09:32;19.70;99.90
2387;DHT22;49473;50.772;8.768;2023-05-07T10:12:00;20.20;99.90
2387;DHT22;49473;50.772;8.768;2023-05-07T10:14:28;21.00;99.90
2387;DHT22;49473;50.772;8.768;2023-05-07T10:16:55;21.70;99.90
2387;DHT22;49473;50.772;8.768;2023-05-07T10:19:22;23.00;99.90
2387;DHT22;49473;50.772;8.768;2023-05-07T10:21:54;24.20;99.90
2387;DHT22;49473;50.772;8.768;2023-05-07T10:24:25;25.50;99.90
2387;DHT22;49473;50.772;8.768;2023-05-07T10:26:56;25.70;99.90
2387;DHT22;49473;50.772;8.768;2023-05-07T10:29:36;27.10;99.90
2387;DHT22;49473;50.772;8.768;2023-05-07T10:32:19;26.30;99.90
2387;DHT22;49473;50.772;8.768;2023-05-07T10:34:50;26.10;99.90
2387;DHT22;49473;50.772;8.768;2023-05-07T10:37:19;27.00;99.90
2387;DHT22;49473;50.772;8.768;2023-05-07T10:39:46;28.20;99.90
2387;DHT22;49473;50.772;8.768;2023-05-07T10:42:14;29.20;99.90
2387;DHT22;49473;50.772;8.768;2023-05-07T10:44:42;29.50;99.90
2387;DHT22;49473;50.772;8.768;2023-05-07T10:47:10;28.30;99.90
2387;DHT22;49473;50.772;8.768;2023-05-07T10:50:20;28.80;99.90
2387;DHT22;49473;50.772;8.768;2023-05-07T10:53:22;29.40;99.90
2387;DHT22;49473;50.772;8.768;2023-05-07T10:58:56;27.90;99.90
2387;DHT22;49473;50.772;8.768;2023-05-07T11:01:53;28.00;99.90
2387;DHT22;49473;50.772;8.768;2023-05-07T11:04:19;27.70;99.90
2387;DHT22;49473;50.772;8.768;2023-05-07T11:10:05;27.60;99.90
2387;DHT22;49473;50.772;8.768;2023-05-07T11:12:52;25.60;99.90
2387;DHT22;49473;50.772;8.768;2023-05-07T11:15:39;24.70;99.90
2387;DHT22;49473;50.772;8.768;2023-05-07T11:18:08;24.90;99.90
2387;DHT22;49473;50.772;8.768;2023-05-07T11:20:59;24.70;99.90
2387;DHT22;49473;50.772;8.768;2023-05-07T11:23:54;25.10;99.90
2387;DHT22;49473;50.772;8.768;2023-05-07T11:26:22;25.20;99.90
2387;DHT22;49473;50.772;8.768;2023-05-07T11:28:49;24.30;99.90
2387;DHT22;49473;50.772;8.768;2023-05-07T11:31:21;24.00;99.90
2387;DHT22;49473;50.772;8.768;2023-05-07T11:33:50;24.90;99.90
2387;DHT22;49473;50.772;8.768;2023-05-07T11:36:18;26.00;99.90
2387;DHT22;49473;50.772;8.768;2023-05-07T11:38:45;25.70;99.90
2387;DHT22;49473;50.772;8.768;2023-05-07T11:41:11;26.50;99.90
2387;DHT22;49473;50.772;8.768;2023-05-07T11:43:53;26.70;99.90
2387;DHT22;49473;50.772;8.768;2023-05-07T11:46:20;26.50;99.90
2387;DHT22;49473;50.772;8.768;2023-05-07T11:48:47;25.70;99.90
2387;DHT22;49473;50.772;8.768;2023-05-07T11:51:19;24.60;99.90
2387;DHT22;49473;50.772;8.768;2023-05-07T11:53:46;24.50;99.90
2387;DHT22;49473;50.772;8.768;2023-05-07T11:56:14;24.20;99.90
2387;DHT22;49473;50.772;8.768;2023-05-07T11:58:42;23.80;99.90
2387;DHT22;49473;50.772;8.768;2023-05-07T12:01:10;24.30;99.90
2387;DHT22;49473;50.772;8.768;2023-05-07T12:03:39;24.70;99.90
2387;DHT22;49473;50.772;8.768;2023-05-07T12:06:08;24.90;99.90
2387;DHT22;49473;50.772;8.768;2023-05-07T12:08:38;24.90;99.90
2387;DHT22;49473;50.772;8.768;2023-05-07T12:11:08;24.70;99.90
2387;DHT22;49473;50.772;8.768;2023-05-07T12:13:37;24.90;99.90
2387;DHT22;49473;50.772;8.768;2023-05-07T12:16:05;25.90;99.90
2387;DHT22;49473;50.772;8.768;2023-05-07T12:18:33;26.60;99.90
2387;DHT22;49473;50.772;8.768;2023-05-07T12:21:01;26.20;99.90
2387;DHT22;49473;50.772;8.768;2023-05-07T12:23:28;26.50;99.90
2387;DHT22;49473;50.772;8.768;2023-05-07T12:25:56;26.50;99.90
2387;DHT22;49473;50.772;8.768;2023-05-07T12:28:23;26.60;99.90
2387;DHT22;49473;50.772;8.768;2023-05-07T12:30:50;27.00;99.90
2387;DHT22;49473;50.772;8.768;2023-05-07T12:33:18;27.30;99.90
2387;DHT22;49473;50.772;8.768;2023-05-07T12:35:47;27.50;99.90
2387;DHT22;49473;50.772;8.768;2023-05-07T12:38:16;27.10;99.90
2387;DHT22;49473;50.772;8.768;2023-05-07T12:40:45;26.80;99.90
2387;DHT22;49473;50.772;8.768;2023-05-07T12:43:17;26.80;99.90
2387;DHT22;49473;50.772;8.768;2023-05-07T12:45:45;25.70;99.90
2387;DHT22;49473;50.772;8.768;2023-05-07T12:48:13;25.10;99.90
2387;DHT22;49473;50.772;8.768;2023-05-07T12:50:39;25.30;99.90
2387;DHT22;49473;50.772;8.768;2023-05-07T12:53:07;25.70;99.90
2387;DHT22;49473;50.772;8.768;2023-05-07T12:55:41;26.00;99.90
2387;DHT22;49473;50.772;8.768;2023-05-07T12:58:14;25.70;99.90
2387;DHT22;49473;50.772;8.768;2023-05-07T13:00:44;26.30;99.90
2387;DHT22;49473;50.772;8.768;2023-05-07T13:03:11;26.50;99.90
2387;DHT22;49473;50.772;8.768;2023-05-07T13:05:38;26.90;99.90
2387;DHT22;49473;50.772;8.768;2023-05-07T13:08:05;28.10;99.90
2387;DHT22;49473;50.772;8.768;2023-05-07T13:10:32;29.30;99.90
2387;DHT22;49473;50.772;8.768;2023-05-07T13:12:59;28.80;96.60
2387;DHT22;49473;50.772;8.768;2023-05-07T13:15:26;29.50;98.70
2387;DHT22;49473;50.772;8.768;2023-05-07T13:17:54;30.20;95.60
2387;DHT22;49473;50.772;8.768;2023-05-07T13:20:21;30.10;95.50
2387;DHT22;49473;50.772;8.768;2023-05-07T13:22:48;30.00;94.10
2387;DHT22;49473;50.772;8.768;2023-05-07T13:25:15;29.50;93.70
2387;DHT22;49473;50.772;8.768;2023-05-07T13:27:42;28.10;94.70
2387;DHT22;49473;50.772;8.768;2023-05-07T13:30:08;26.90;96.00
2387;DHT22;49473;50.772;8.768;2023-05-07T13:32:35;27.10;97.50
2387;DHT22;49473;50.772;8.768;2023-05-07T13:35:04;27.70;96.90
2387;DHT22;49473;50.772;8.768;2023-05-07T13:37:31;27.30;96.80
2387;DHT22;49473;50.772;8.768;2023-05-07T13:39:58;27.10;97.50
2387;DHT22;49473;50.772;8.768;2023-05-07T13:42:25;28.10;97.60
2387;DHT22;49473;50.772;8.768;2023-05-07T13:44:52;27.50;95.20
2387;DHT22;49473;50.772;8.768;2023-05-07T13:47:18;26.90;96.90
2387;DHT22;49473;50.772;8.768;2023-05-07T13:49:45;26.50;98.00
2387;DHT22;49473;50.772;8.768;2023-05-07T13:52:17;26.30;97.00
2387;DHT22;49473;50.772;8.768;2023-05-07T13:54:44;25.80;98.20
2387;DHT22;49473;50.772;8.768;2023-05-07T13:57:10;25.30;98.30
2387;DHT22;49473;50.772;8.768;2023-05-07T13:59:37;24.50;98.70
2387;DHT22;49473;50.772;8.768;2023-05-07T14:02:04;24.30;99.90
2387;DHT22;49473;50.772;8.768;2023-05-07T14:04:30;24.10;99.90
2387;DHT22;49473;50.772;8.768;2023-05-07T14:06:57;24.00;99.90
2387;DHT22;49473;50.772;8.768;2023-05-07T14:09:25;24.20;99.90
2387;DHT22;49473;50.772;8.768;2023-05-07T14:11:52;24.10;99.90
2387;DHT22;49473;50.772;8.768;2023-05-07T14:14:19;24.20;99.90
2387;DHT22;49473;50.772;8.768;2023-05-07T14:16:45;24.20;99.90
2387;DHT22;49473;50.772;8.768;2023-05-07T14:19:12;23.80;99.90
2387;DHT22;49473;50.772;8.768;2023-05-07T14:21:39;23.10;99.90
2387;DHT22;49473;50.772;8.768;2023-05-07T14:24:07;22.90;99.90
2387;DHT22;49473;50.772;8.768;2023-05-07T14:26:35;22.80;99.90
2387;DHT22;49473;50.772;8.768;2023-05-07T14:29:02;23.00;99.90
2387;DHT22;49473;50.772;8.768;2023-05-07T14:31:29;22.70;99.90
2387;DHT22;49473;50.772;8.768;2023-05-07T14:33:56;22.60;99.90
2387;DHT22;49473;50.772;8.768;2023-05-07T14:36:23;22.30;99.90
2387;DHT22;49473;50.772;8.768;2023-05-07T14:38:51;22.10;99.90
2387;DHT22;49473;50.772;8.768;2023-05-07T14:41:19;22.00;99.90
2387;DHT22;49473;50.772;8.768;2023-05-07T14:43:47;21.90;99.90
2387;DHT22;49473;50.772;8.768;2023-05-07T14:46:15;21.80;99.90
2387;DHT22;49473;50.772;8.768;2023-05-07T14:48:43;22.00;99.90
2387;DHT22;49473;50.772;8.768;2023-05-07T14:51:10;22.10;99.90
2387;DHT22;49473;50.772;8.768;2023-05-07T14:53:37;22.10;99.90
2387;DHT22;49473;50.772;8.768;2023-05-07T14:56:04;22.20;99.90
2387;DHT22;49473;50.772;8.768;2023-05-07T14:58:31;22.30;99.90
2387;DHT22;49473;50.772;8.768;2023-05-07T15:01:00;22.30;99.90
2387;DHT22;49473;50.772;8.768;2023-05-07T15:03:27;22.30;99.90
2387;DHT22;49473;50.772;8.768;2023-05-07T15:05:54;22.30;99.90
2387;DHT22;49473;50.772;8.768;2023-05-07T15:08:20;22.00;99.90
2387;DHT22;49473;50.772;8.768;2023-05-07T15:10:47;22.00;99.90
2387;DHT22;49473;50.772;8.768;2023-05-07T15:13:14;22.10;99.90
2387;DHT22;49473;50.772;8.768;2023-05-07T15:15:41;22.20;99.90
2387;DHT22;49473;50.772;8.768;2023-05-07T15:18:09;22.30;99.90
2387;DHT22;49473;50.772;8.768;2023-05-07T15:20:36;22.20;99.90
2387;DHT22;49473;50.772;8.768;2023-05-07T15:23:03;22.00;99.90
2387;DHT22;49473;50.772;8.768;2023-05-07T15:25:30;22.00;99.90
2387;DHT22;49473;50.772;8.768;2023-05-07T15:27:59;21.60;99.90
2387;DHT22;49473;50.772;8.768;2023-05-07T15:30:25;21.50;99.90
2387;DHT22;49473;50.772;8.768;2023-05-07T15:32:52;21.50;99.90
2387;DHT22;49473;50.772;8.768;2023-05-07T15:35:21;21.60;99.90
2387;DHT22;49473;50.772;8.768;2023-05-07T15:37:47;21.50;99.90
2387;DHT22;49473;50.772;8.768;2023-05-07T15:40:15;21.60;99.90
2387;DHT22;49473;50.772;8.768;2023-05-07T15:42:44;21.50;99.90
2387;DHT22;49473;50.772;8.768;2023-05-07T15:45:11;21.40;99.90
2387;DHT22;49473;50.772;8.768;2023-05-07T15:47:38;21.20;99.90
2387;DHT22;49473;50.772;8.768;2023-05-07T15:50:06;21.20;99.90
2387;DHT22;49473;50.772;8.768;2023-05-07T15:52:34;21.20;99.90
2387;DHT22;49473;50.772;8.768;2023-05-07T15:55:00;21.20;99.90
2387;DHT22;49473;50.772;8.768;2023-05-07T15:57:28;21.30;99.90